createdAt,value
2016-09-13T00:00:21.168Z,24.42
2016-09-13T00:01:21.194Z,24.38
2016-09-13T00:02:21.224Z,24.45
2016-09-13T00:03:21.249Z,24.4
2016-09-13T00:04:21.283Z,24.35
2016-09-13T00:05:21.311Z,24.36
2016-09-13T00:06:21.447Z,24.35
2016-09-13T00:07:21.459Z,24.32
2016-09-13T00:08:21.618Z,24.33
2016-09-13T00:09:21.631Z,24.3
2016-09-13T00:10:21.953Z,24.32
2016-09-13T00:11:21.649Z,24.21
2016-09-13T00:12:21.648Z,24.17
2016-09-13T00:13:21.655Z,24.26
2016-09-13T00:14:21.669Z,24.18
2016-09-13T00:15:21.673Z,24.2
2016-09-13T00:16:21.818Z,24.21
2016-09-13T00:17:22.137Z,24.18
2016-09-13T00:18:21.770Z,24.16
2016-09-13T00:19:21.779Z,24.06
2016-09-13T00:20:21.811Z,24.03
2016-09-13T00:21:21.809Z,24.1
2016-09-13T00:22:21.816Z,24.1
2016-09-13T00:23:21.829Z,24.1
2016-09-13T00:24:21.857Z,24.11
2016-09-13T00:25:21.874Z,24.02
2016-09-13T00:26:21.893Z,23.99
2016-09-13T00:27:21.914Z,23.99
2016-09-13T00:28:21.973Z,23.93
2016-09-13T00:29:21.975Z,23.95
2016-09-13T00:30:21.998Z,23.87
2016-09-13T00:31:22.029Z,23.92
2016-09-13T00:32:22.059Z,23.93
2016-09-13T00:33:22.093Z,23.86
2016-09-13T00:34:22.114Z,23.86
2016-09-13T00:35:22.137Z,23.84
2016-09-13T00:36:22.173Z,23.87
2016-09-13T00:37:22.200Z,23.88
2016-09-13T00:38:22.221Z,23.92
2016-09-13T00:39:22.251Z,23.78
2016-09-13T00:40:22.275Z,23.84
2016-09-13T00:41:22.303Z,23.74
2016-09-13T00:42:22.333Z,23.74
2016-09-13T00:43:22.362Z,23.78
2016-09-13T00:44:22.393Z,23.8
2016-09-13T00:45:22.412Z,23.74
2016-09-13T00:46:22.444Z,23.74
2016-09-13T00:47:22.471Z,23.73
2016-09-13T00:48:22.497Z,23.69
2016-09-13T00:49:22.540Z,23.81
2016-09-13T00:50:22.867Z,23.71
2016-09-13T00:51:22.580Z,23.73
2016-09-13T00:52:22.608Z,23.74
2016-09-13T00:53:22.633Z,23.65
2016-09-13T00:54:22.672Z,23.71
2016-09-13T00:55:22.695Z,23.69
2016-09-13T00:56:22.717Z,23.74
2016-09-13T00:57:22.745Z,23.71
2016-09-13T00:58:22.771Z,23.66
2016-09-13T00:59:22.798Z,23.62
2016-09-13T01:00:22.841Z,23.63
2016-09-13T01:01:22.865Z,23.59
2016-09-13T01:02:22.904Z,23.61
2016-09-13T01:03:22.905Z,23.61
2016-09-13T01:04:22.935Z,23.56
2016-09-13T01:05:23.013Z,23.55
2016-09-13T01:06:22.992Z,23.55
2016-09-13T01:07:23.019Z,23.55
2016-09-13T01:08:23.045Z,23.61
2016-09-13T01:09:23.072Z,23.48
2016-09-13T01:10:23.096Z,23.43
2016-09-13T01:11:23.128Z,23.5
2016-09-13T01:12:23.158Z,23.47
2016-09-13T01:13:23.182Z,23.5
2016-09-13T01:14:23.208Z,23.4
2016-09-13T01:15:23.233Z,23.41
2016-09-13T01:16:23.263Z,23.36
2016-09-13T01:17:23.290Z,23.39
2016-09-13T01:18:23.317Z,23.39
2016-09-13T01:19:23.358Z,23.36
2016-09-13T01:20:23.367Z,23.28
2016-09-13T01:21:23.399Z,23.32
2016-09-13T01:22:23.427Z,23.25
2016-09-13T01:23:23.451Z,23.27
2016-09-13T01:24:23.479Z,23.25
2016-09-13T01:25:23.504Z,23.31
2016-09-13T01:26:23.535Z,23.27
2016-09-13T01:27:23.561Z,23.21
2016-09-13T01:28:23.590Z,23.27
2016-09-13T01:29:23.615Z,23.27
2016-09-13T01:30:23.641Z,23.27
2016-09-13T01:31:23.670Z,23.28
2016-09-13T01:32:23.697Z,23.25
2016-09-13T01:33:23.721Z,23.25
2016-09-13T01:34:23.751Z,23.27
2016-09-13T01:35:23.778Z,23.21
2016-09-13T01:36:23.803Z,23.21
2016-09-13T01:37:23.833Z,23.2
2016-09-13T01:38:23.860Z,23.18
2016-09-13T01:39:23.888Z,23.13
2016-09-13T01:40:23.916Z,23.12
2016-09-13T01:41:23.940Z,23.08
2016-09-13T01:42:23.965Z,23.13
2016-09-13T01:43:23.994Z,23.12
2016-09-13T01:44:24.020Z,23.09
2016-09-13T01:45:24.044Z,23.12
2016-09-13T01:46:24.076Z,23.02
2016-09-13T01:47:24.107Z,23.08
2016-09-13T01:48:24.127Z,22.99
2016-09-13T01:49:24.155Z,22.98
2016-09-13T01:50:24.195Z,23.03
2016-09-13T01:51:24.211Z,22.98
2016-09-13T01:52:24.236Z,23.05
2016-09-13T01:53:24.266Z,23.02
2016-09-13T01:54:24.291Z,22.96
2016-09-13T01:55:24.318Z,22.96
2016-09-13T01:56:24.344Z,22.94
2016-09-13T01:57:24.367Z,22.94
2016-09-13T01:58:24.397Z,22.94
2016-09-13T01:59:24.429Z,22.94
2016-09-13T02:00:24.451Z,22.88
2016-09-13T02:01:24.481Z,22.81
2016-09-13T02:02:24.500Z,22.88
2016-09-13T02:03:24.537Z,22.84
2016-09-13T02:04:24.558Z,22.85
2016-09-13T02:05:24.589Z,22.83
2016-09-13T02:06:24.610Z,22.85
2016-09-13T02:07:24.637Z,22.84
2016-09-13T02:08:24.665Z,22.84
2016-09-13T02:09:24.690Z,22.78
2016-09-13T02:10:24.718Z,22.83
2016-09-13T02:11:24.744Z,22.8
2016-09-13T02:12:24.767Z,22.8
2016-09-13T02:13:24.794Z,22.78
2016-09-13T02:14:24.823Z,22.81
2016-09-13T02:15:24.848Z,22.72
2016-09-13T02:16:24.876Z,22.72
2016-09-13T02:17:24.918Z,22.7
2016-09-13T02:18:24.949Z,22.7
2016-09-13T02:19:24.963Z,22.69
2016-09-13T02:20:24.989Z,22.7
2016-09-13T02:21:25.009Z,22.69
2016-09-13T02:22:25.039Z,22.68
2016-09-13T02:23:25.063Z,22.63
2016-09-13T02:24:25.095Z,22.65
2016-09-13T02:25:25.115Z,22.63
2016-09-13T02:26:25.142Z,22.62
2016-09-13T02:27:25.169Z,22.63
2016-09-13T02:28:25.200Z,22.59
2016-09-13T02:29:25.223Z,22.57
2016-09-13T02:30:25.259Z,22.59
2016-09-13T02:31:25.277Z,22.57
2016-09-13T02:32:25.304Z,22.54
2016-09-13T02:33:25.327Z,22.55
2016-09-13T02:34:25.359Z,22.53
2016-09-13T02:35:25.380Z,22.54
2016-09-13T02:36:25.404Z,22.51
2016-09-13T02:37:25.432Z,22.5
2016-09-13T02:38:25.457Z,22.51
2016-09-13T02:39:25.485Z,22.5
2016-09-13T02:40:25.516Z,22.51
2016-09-13T02:41:25.535Z,22.5
2016-09-13T02:42:25.567Z,22.44
2016-09-13T02:43:25.590Z,22.44
2016-09-13T02:44:25.617Z,22.59
2016-09-13T02:45:25.644Z,22.47
2016-09-13T02:46:25.668Z,22.47
2016-09-13T02:47:25.698Z,22.57
2016-09-13T02:48:25.723Z,22.54
2016-09-13T02:49:25.746Z,22.53
2016-09-13T02:50:25.776Z,22.45
2016-09-13T02:51:25.804Z,22.47
2016-09-13T02:52:25.828Z,22.54
2016-09-13T02:53:25.860Z,22.43
2016-09-13T02:54:25.882Z,22.47
2016-09-13T02:55:25.907Z,22.47
2016-09-13T02:56:25.937Z,22.43
2016-09-13T02:57:25.969Z,22.38
2016-09-13T02:58:25.985Z,22.41
2016-09-13T02:59:26.012Z,22.35
2016-09-13T03:00:26.036Z,22.39
2016-09-13T03:01:26.065Z,22.36
2016-09-13T03:02:26.092Z,22.41
2016-09-13T03:03:26.129Z,22.35
2016-09-13T03:04:26.142Z,22.32
2016-09-13T03:05:26.167Z,22.33
2016-09-13T03:06:26.196Z,22.33
2016-09-13T03:07:26.225Z,22.33
2016-09-13T03:08:26.249Z,22.3
2016-09-13T03:09:26.276Z,22.3
2016-09-13T03:10:26.299Z,22.29
2016-09-13T03:11:26.328Z,22.26
2016-09-13T03:12:26.352Z,22.28
2016-09-13T03:13:26.382Z,22.22
2016-09-13T03:14:26.424Z,22.23
2016-09-13T03:15:26.428Z,22.23
2016-09-13T03:16:26.459Z,22.28
2016-09-13T03:17:26.483Z,22.25
2016-09-13T03:18:26.511Z,22.22
2016-09-13T03:19:26.536Z,22.22
2016-09-13T03:20:26.561Z,22.15
2016-09-13T03:21:26.588Z,22.22
2016-09-13T03:22:26.624Z,22.11
2016-09-13T03:23:26.648Z,22.11
2016-09-13T03:24:26.668Z,22.15
2016-09-13T03:25:26.694Z,22.14
2016-09-13T03:26:26.717Z,22.08
2016-09-13T03:27:26.743Z,22.17
2016-09-13T03:28:26.770Z,22.2
2016-09-13T03:29:26.800Z,22.13
2016-09-13T03:30:26.822Z,22.2
2016-09-13T03:31:26.851Z,22
2016-09-13T03:32:27.193Z,22.04
2016-09-13T03:33:27.017Z,22
2016-09-13T03:34:27.049Z,22.04
2016-09-13T03:35:27.058Z,21.96
2016-09-13T03:36:27.067Z,21.98
2016-09-13T03:37:27.066Z,22.04
2016-09-13T03:38:27.135Z,21.96
2016-09-13T03:39:27.145Z,22.04
2016-09-13T03:40:27.152Z,21.99
2016-09-13T03:41:27.151Z,22.06
2016-09-13T03:42:27.160Z,22.06
2016-09-13T03:43:27.169Z,22.04
2016-09-13T03:44:27.188Z,22.02
2016-09-13T03:45:27.304Z,21.95
2016-09-13T03:46:27.326Z,21.99
2016-09-13T03:47:27.335Z,22.02
2016-09-13T03:48:27.342Z,21.98
2016-09-13T03:49:27.352Z,21.91
2016-09-13T03:50:27.361Z,21.95
2016-09-13T03:51:27.370Z,21.93
2016-09-13T03:52:27.396Z,21.92
2016-09-13T03:53:27.427Z,21.88
2016-09-13T03:54:27.443Z,21.89
2016-09-13T03:55:27.475Z,21.82
2016-09-13T03:56:27.497Z,21.85
2016-09-13T03:57:27.525Z,21.75
2016-09-13T03:58:27.863Z,21.83
2016-09-13T03:59:27.901Z,21.79
2016-09-13T04:00:27.601Z,21.89
2016-09-13T04:01:27.627Z,21.8
2016-09-13T04:02:27.652Z,21.8
2016-09-13T04:03:27.685Z,21.8
2016-09-13T04:04:27.704Z,21.77
2016-09-13T04:05:27.731Z,21.83
2016-09-13T04:06:27.756Z,21.73
2016-09-13T04:07:27.782Z,21.8
2016-09-13T04:08:27.826Z,21.8
2016-09-13T04:09:27.839Z,21.76
2016-09-13T04:10:27.873Z,21.77
2016-09-13T04:11:27.888Z,21.64
2016-09-13T04:12:27.912Z,21.69
2016-09-13T04:13:27.932Z,21.72
2016-09-13T04:14:27.961Z,21.64
2016-09-13T04:15:28.008Z,21.77
2016-09-13T04:16:28.014Z,21.72
2016-09-13T04:17:28.042Z,21.7
2016-09-13T04:18:28.062Z,21.69
2016-09-13T04:19:28.091Z,21.69
2016-09-13T04:20:28.115Z,21.61
2016-09-13T04:21:28.148Z,21.58
2016-09-13T04:22:28.168Z,21.55
2016-09-13T04:23:28.194Z,21.58
2016-09-13T04:24:28.225Z,21.61
2016-09-13T04:25:28.242Z,21.61
2016-09-13T04:26:28.273Z,21.6
2016-09-13T04:27:28.297Z,21.61
2016-09-13T04:28:28.322Z,21.62
2016-09-13T04:29:28.348Z,21.58
2016-09-13T04:30:28.370Z,21.6
2016-09-13T04:31:28.402Z,21.6
2016-09-13T04:32:28.421Z,21.58
2016-09-13T04:33:28.449Z,21.58
2016-09-13T04:34:28.481Z,21.57
2016-09-13T04:35:28.500Z,21.58
2016-09-13T04:36:28.527Z,21.6
2016-09-13T04:37:28.551Z,21.54
2016-09-13T04:38:29.007Z,21.43
2016-09-13T04:39:28.602Z,21.55
2016-09-13T04:40:28.626Z,21.51
2016-09-13T04:41:28.653Z,21.48
2016-09-13T04:42:28.680Z,21.46
2016-09-13T04:43:28.705Z,21.48
2016-09-13T04:44:28.730Z,21.5
2016-09-13T04:45:28.755Z,21.51
2016-09-13T04:46:28.786Z,21.42
2016-09-13T04:47:28.808Z,21.43
2016-09-13T04:48:28.842Z,21.4
2016-09-13T04:49:28.968Z,21.4
2016-09-13T04:50:28.975Z,21.48
2016-09-13T04:51:28.992Z,21.42
2016-09-13T04:52:29.020Z,21.5
2016-09-13T04:53:29.049Z,21.43
2016-09-13T04:54:29.130Z,21.43
2016-09-13T04:55:29.126Z,21.33
2016-09-13T04:56:29.136Z,21.4
2016-09-13T04:57:29.173Z,21.35
2016-09-13T04:58:29.286Z,21.48
2016-09-13T04:59:29.295Z,21.36
2016-09-13T05:00:29.300Z,21.42
2016-09-13T05:01:29.309Z,21.37
2016-09-13T05:02:29.319Z,21.37
2016-09-13T05:03:29.325Z,21.42
2016-09-13T05:04:29.429Z,21.39
2016-09-13T05:05:29.333Z,21.4
2016-09-13T05:06:29.381Z,21.4
2016-09-13T05:07:29.315Z,21.42
2016-09-13T05:08:29.336Z,21.4
2016-09-13T05:09:29.371Z,21.43
2016-09-13T05:10:29.389Z,21.42
2016-09-13T05:11:29.412Z,21.35
2016-09-13T05:12:29.440Z,21.32
2016-09-13T05:13:29.464Z,21.39
2016-09-13T05:14:29.491Z,21.29
2016-09-13T05:15:29.511Z,21.35
2016-09-13T05:16:29.541Z,21.25
2016-09-13T05:17:29.566Z,21.33
2016-09-13T05:18:29.592Z,21.32
2016-09-13T05:19:29.619Z,21.33
2016-09-13T05:20:29.641Z,21.37
2016-09-13T05:21:29.666Z,21.33
2016-09-13T05:22:29.690Z,21.32
2016-09-13T05:23:29.720Z,21.32
2016-09-13T05:24:29.741Z,21.3
2016-09-13T05:25:29.770Z,21.33
2016-09-13T05:26:29.791Z,21.25
2016-09-13T05:27:29.824Z,21.32
2016-09-13T05:28:29.847Z,21.37
2016-09-13T05:29:29.871Z,21.32
2016-09-13T05:30:29.895Z,21.32
2016-09-13T05:31:29.918Z,21.33
2016-09-13T05:32:29.948Z,21.32
2016-09-13T05:33:29.986Z,21.35
2016-09-13T05:34:29.998Z,21.33
2016-09-13T05:35:30.021Z,21.32
2016-09-13T05:36:30.047Z,21.33
2016-09-13T05:37:30.071Z,21.32
2016-09-13T05:38:30.096Z,21.32
2016-09-13T05:39:30.123Z,21.29
2016-09-13T05:40:30.144Z,21.33
2016-09-13T05:41:30.175Z,21.33
2016-09-13T05:42:30.196Z,21.29
2016-09-13T05:43:30.375Z,21.35
2016-09-13T05:44:30.424Z,21.37
2016-09-13T05:45:30.421Z,21.3
2016-09-13T05:46:30.300Z,21.32
2016-09-13T05:47:30.331Z,21.32
2016-09-13T05:48:30.352Z,21.33
2016-09-13T05:49:30.381Z,21.25
2016-09-13T05:50:30.401Z,21.32
2016-09-13T05:51:30.436Z,21.35
2016-09-13T05:52:30.453Z,21.3
2016-09-13T05:53:30.481Z,21.37
2016-09-13T05:54:30.833Z,21.36
2016-09-13T05:55:30.529Z,21.33
2016-09-13T05:56:30.552Z,21.32
2016-09-13T05:57:30.585Z,21.32
2016-09-13T05:58:30.603Z,21.36
2016-09-13T05:59:30.946Z,21.37
2016-09-13T06:00:30.654Z,21.4
2016-09-13T06:01:30.679Z,21.37
2016-09-13T06:02:30.708Z,21.36
2016-09-13T06:03:30.727Z,21.37
2016-09-13T06:04:30.753Z,21.37
2016-09-13T06:05:30.778Z,21.29
2016-09-13T06:06:30.823Z,21.42
2016-09-13T06:07:30.831Z,21.4
2016-09-13T06:08:30.852Z,21.39
2016-09-13T06:09:31.192Z,21.5
2016-09-13T06:10:30.905Z,21.51
2016-09-13T06:11:30.932Z,21.51
2016-09-13T06:12:30.955Z,21.48
2016-09-13T06:13:30.979Z,21.57
2016-09-13T06:14:31.009Z,21.57
2016-09-13T06:15:31.145Z,21.58
2016-09-13T06:16:31.056Z,21.61
2016-09-13T06:17:31.081Z,21.61
2016-09-13T06:18:31.109Z,21.61
2016-09-13T06:19:31.131Z,21.72
2016-09-13T06:20:31.155Z,21.69
2016-09-13T06:21:31.388Z,21.69
2016-09-13T06:22:31.214Z,21.7
2016-09-13T06:23:31.277Z,21.76
2016-09-13T06:24:31.281Z,21.82
2016-09-13T06:25:31.394Z,21.83
2016-09-13T06:26:31.310Z,21.82
2016-09-13T06:27:31.335Z,21.88
2016-09-13T06:28:31.359Z,21.99
2016-09-13T06:29:31.384Z,21.96
2016-09-13T06:30:31.415Z,21.98
2016-09-13T06:31:31.435Z,21.99
2016-09-13T06:32:31.457Z,21.99
2016-09-13T06:33:31.490Z,22.07
2016-09-13T06:34:31.514Z,22.11
2016-09-13T06:35:31.538Z,22.17
2016-09-13T06:36:31.561Z,22.18
2016-09-13T06:37:31.588Z,22.28
2016-09-13T06:38:31.611Z,22.3
2016-09-13T06:39:31.645Z,22.28
2016-09-13T06:40:31.661Z,22.32
2016-09-13T06:41:31.691Z,22.35
2016-09-13T06:42:31.719Z,22.45
2016-09-13T06:43:31.741Z,22.44
2016-09-13T06:44:31.765Z,22.5
2016-09-13T06:45:31.791Z,22.55
2016-09-13T06:46:31.821Z,22.5
2016-09-13T06:47:31.846Z,22.44
2016-09-13T06:48:31.865Z,22.6
2016-09-13T06:49:31.890Z,22.54
2016-09-13T06:50:32.006Z,22.54
2016-09-13T06:51:31.949Z,22.69
2016-09-13T06:52:32.175Z,22.7
2016-09-13T06:53:32.186Z,22.73
2016-09-13T06:54:32.018Z,22.75
2016-09-13T06:55:32.048Z,22.81
2016-09-13T06:56:32.196Z,22.87
2016-09-13T06:57:32.107Z,22.93
2016-09-13T06:58:32.126Z,22.94
2016-09-13T06:59:32.150Z,22.99
2016-09-13T07:00:32.177Z,23.08
2016-09-13T07:01:32.199Z,23.2
2016-09-13T07:02:32.246Z,23.12
2016-09-13T07:03:32.249Z,23.2
2016-09-13T07:04:32.283Z,23.28
2016-09-13T07:05:32.590Z,23.18
2016-09-13T07:06:32.723Z,23.25
2016-09-13T07:07:32.358Z,23.37
2016-09-13T07:08:32.383Z,23.37
2016-09-13T07:09:32.572Z,23.4
2016-09-13T07:10:32.760Z,23.48
2016-09-13T07:11:32.457Z,23.58
2016-09-13T07:12:32.481Z,23.59
2016-09-13T07:13:32.508Z,23.63
2016-09-13T07:14:32.596Z,23.74
2016-09-13T07:15:32.561Z,23.71
2016-09-13T07:16:32.590Z,23.63
2016-09-13T07:17:32.939Z,23.83
2016-09-13T07:18:32.736Z,23.74
2016-09-13T07:19:32.668Z,23.91
2016-09-13T07:20:32.688Z,23.87
2016-09-13T07:21:32.719Z,23.96
2016-09-13T07:22:32.741Z,23.99
2016-09-13T07:23:32.769Z,23.98
2016-09-13T07:24:32.794Z,24.08
2016-09-13T07:25:33.025Z,24.08
2016-09-13T07:26:33.032Z,24.14
2016-09-13T07:27:32.988Z,24.2
2016-09-13T07:28:32.915Z,24.29
2016-09-13T07:29:32.927Z,24.35
2016-09-13T07:30:32.965Z,24.38
2016-09-13T07:31:32.979Z,24.45
2016-09-13T07:32:33.005Z,24.54
2016-09-13T07:33:33.031Z,24.65
2016-09-13T07:34:33.072Z,24.58
2016-09-13T07:35:33.087Z,24.73
2016-09-13T07:36:33.110Z,24.73
2016-09-13T07:37:33.134Z,24.78
2016-09-13T07:38:33.162Z,24.84
2016-09-13T07:39:33.190Z,24.86
2016-09-13T07:40:33.216Z,24.96
2016-09-13T07:41:33.244Z,24.96
2016-09-13T07:42:33.303Z,24.95
2016-09-13T07:43:33.295Z,25.03
2016-09-13T07:44:33.324Z,25.1
2016-09-13T07:45:33.571Z,25.13
2016-09-13T07:46:33.376Z,25.25
2016-09-13T07:47:33.407Z,25.26
2016-09-13T07:48:33.447Z,25.26
2016-09-13T07:49:33.532Z,25.32
2016-09-13T07:50:33.708Z,25.44
2016-09-13T07:51:33.505Z,25.43
2016-09-13T07:52:33.537Z,25.53
2016-09-13T07:53:33.562Z,25.59
2016-09-13T07:54:33.590Z,25.58
2016-09-13T07:55:33.629Z,25.65
2016-09-13T07:56:33.653Z,25.69
2016-09-13T07:57:33.667Z,25.72
2016-09-13T07:58:33.773Z,25.8
2016-09-13T07:59:33.731Z,25.88
2016-09-13T08:00:33.746Z,25.88
2016-09-13T08:01:33.777Z,25.96
2016-09-13T08:02:33.804Z,25.96
2016-09-13T08:03:33.834Z,26.05
2016-09-13T08:04:33.953Z,26.1
2016-09-13T08:05:33.885Z,26.18
2016-09-13T08:06:33.922Z,26.1
2016-09-13T08:07:33.940Z,26.25
2016-09-13T08:08:33.967Z,26.25
2016-09-13T08:09:34.011Z,26.34
2016-09-13T08:10:34.139Z,26.37
2016-09-13T08:11:34.053Z,26.36
2016-09-13T08:12:34.077Z,26.44
2016-09-13T08:13:34.104Z,26.56
2016-09-13T08:14:34.133Z,26.58
2016-09-13T08:15:34.396Z,26.65
2016-09-13T08:16:34.187Z,26.65
2016-09-13T08:17:34.216Z,26.74
2016-09-13T08:18:34.241Z,26.77
2016-09-13T08:19:34.583Z,26.88
2016-09-13T08:20:34.528Z,26.9
2016-09-13T08:21:34.327Z,26.92
2016-09-13T08:22:34.352Z,26.97
2016-09-13T08:23:34.384Z,27.02
2016-09-13T08:24:34.406Z,27.12
2016-09-13T08:25:34.434Z,27.17
2016-09-13T08:26:34.463Z,27.18
2016-09-13T08:27:34.491Z,27.26
2016-09-13T08:28:34.519Z,27.3
2016-09-13T08:29:34.556Z,27.39
2016-09-13T08:30:34.574Z,27.4
2016-09-13T08:31:34.725Z,27.47
2016-09-13T08:32:34.629Z,27.49
2016-09-13T08:33:34.659Z,27.58
2016-09-13T08:34:34.684Z,27.6
2016-09-13T08:35:34.715Z,27.68
2016-09-13T08:36:34.746Z,27.73
2016-09-13T08:37:35.084Z,27.73
2016-09-13T08:38:34.802Z,27.83
2016-09-13T08:39:34.822Z,27.83
2016-09-13T08:40:34.855Z,27.9
2016-09-13T08:41:34.885Z,27.93
2016-09-13T08:42:34.907Z,28.08
2016-09-13T08:43:34.939Z,27.98
2016-09-13T08:44:34.966Z,28.12
2016-09-13T08:45:34.993Z,28.17
2016-09-13T08:46:35.029Z,28.2
2016-09-13T08:47:35.047Z,28.26
2016-09-13T08:48:35.175Z,28.32
2016-09-13T08:49:35.424Z,28.38
2016-09-13T08:50:35.144Z,28.38
2016-09-13T08:51:35.161Z,28.51
2016-09-13T08:52:35.188Z,28.49
2016-09-13T08:53:35.220Z,28.6
2016-09-13T08:54:35.256Z,28.64
2016-09-13T08:55:35.284Z,28.7
2016-09-13T08:56:35.310Z,28.72
2016-09-13T08:57:35.339Z,28.79
2016-09-13T08:58:35.362Z,28.81
2016-09-13T08:59:35.391Z,28.86
2016-09-13T09:00:35.418Z,28.91
2016-09-13T09:01:35.455Z,29.01
2016-09-13T09:02:35.484Z,29.02
2016-09-13T09:03:35.507Z,29.05
2016-09-13T09:04:35.536Z,29.12
2016-09-13T09:05:35.562Z,29.16
2016-09-13T09:06:35.593Z,29.13
2016-09-13T09:07:35.620Z,29.32
2016-09-13T09:08:35.649Z,29.32
2016-09-13T09:09:35.680Z,29.49
2016-09-13T09:10:35.705Z,29.53
2016-09-13T09:11:35.744Z,29.57
2016-09-13T09:12:35.763Z,29.59
2016-09-13T09:13:35.796Z,29.61
2016-09-13T09:14:35.823Z,29.72
2016-09-13T09:15:35.856Z,29.75
2016-09-13T09:16:35.884Z,29.9
2016-09-13T09:17:35.912Z,29.95
2016-09-13T09:18:35.938Z,30.02
2016-09-13T09:19:35.975Z,30.13
2016-09-13T09:20:35.998Z,30.16
2016-09-13T09:21:36.140Z,30.15
2016-09-13T09:22:36.064Z,30.25
2016-09-13T09:23:36.091Z,30.27
2016-09-13T09:24:36.116Z,30.34
2016-09-13T09:25:36.147Z,30.35
2016-09-13T09:26:36.178Z,30.5
2016-09-13T09:27:36.517Z,30.5
2016-09-13T09:28:36.234Z,30.48
2016-09-13T09:29:36.270Z,30.62
2016-09-13T09:30:36.293Z,30.59
2016-09-13T09:31:36.323Z,30.72
2016-09-13T09:32:36.352Z,30.68
2016-09-13T09:33:36.390Z,30.85
2016-09-13T09:34:36.413Z,30.85
2016-09-13T09:35:36.442Z,30.85
2016-09-13T09:36:36.470Z,31.02
2016-09-13T09:37:36.514Z,31.03
2016-09-13T09:38:36.543Z,31.12
2016-09-13T09:39:36.561Z,31.27
2016-09-13T09:40:36.593Z,31.31
2016-09-13T09:41:36.626Z,31.33
2016-09-13T09:42:36.652Z,31.4
2016-09-13T09:43:36.694Z,31.55
2016-09-13T09:44:36.713Z,31.52
2016-09-13T09:45:36.746Z,31.56
2016-09-13T09:46:36.771Z,31.69
2016-09-13T09:47:36.803Z,31.71
2016-09-13T09:48:36.830Z,31.77
2016-09-13T09:49:36.868Z,31.87
2016-09-13T09:50:36.895Z,31.87
2016-09-13T09:51:36.928Z,31.87
2016-09-13T09:52:36.956Z,32
2016-09-13T09:53:37.002Z,32.03
2016-09-13T09:54:37.136Z,32.14
2016-09-13T09:55:37.364Z,32.21
2016-09-13T09:56:37.084Z,32.22
2016-09-13T09:57:37.109Z,32.31
2016-09-13T09:58:37.139Z,32.3
2016-09-13T09:59:37.171Z,32.33
2016-09-13T10:00:37.201Z,32.45
2016-09-13T10:01:37.228Z,32.4
2016-09-13T10:02:37.264Z,32.49
2016-09-13T10:03:37.294Z,32.63
2016-09-13T10:04:37.329Z,32.64
2016-09-13T10:05:37.369Z,32.64
2016-09-13T10:06:37.384Z,32.71
2016-09-13T10:07:37.416Z,32.71
2016-09-13T10:08:37.444Z,32.8
2016-09-13T10:09:37.599Z,32.83
2016-09-13T10:10:37.564Z,32.92
2016-09-13T10:11:37.547Z,32.92
2016-09-13T10:12:37.571Z,33.07
2016-09-13T10:13:37.605Z,33.11
2016-09-13T10:14:37.645Z,33.11
2016-09-13T10:15:37.672Z,33.12
2016-09-13T10:16:37.699Z,33.22
2016-09-13T10:17:37.726Z,33.27
2016-09-13T10:18:37.760Z,33.31
2016-09-13T10:19:37.792Z,33.36
2016-09-13T10:20:37.826Z,33.42
2016-09-13T10:21:37.853Z,33.47
2016-09-13T10:22:37.891Z,33.49
2016-09-13T10:23:37.919Z,33.53
2016-09-13T10:24:37.953Z,33.69
2016-09-13T10:25:37.993Z,33.67
2016-09-13T10:26:38.009Z,33.76
2016-09-13T10:27:38.053Z,33.71
2016-09-13T10:28:38.078Z,33.84
2016-09-13T10:29:38.424Z,33.81
2016-09-13T10:30:38.140Z,33.92
2016-09-13T10:31:38.176Z,33.96
2016-09-13T10:32:38.207Z,33.94
2016-09-13T10:33:38.237Z,34.08
2016-09-13T10:34:38.269Z,34.08
2016-09-13T10:35:38.306Z,34.1
2016-09-13T10:36:38.334Z,34.17
2016-09-13T10:37:38.367Z,34.23
2016-09-13T10:38:38.399Z,34.18
2016-09-13T10:39:38.433Z,34.21
2016-09-13T10:40:38.461Z,34.33
2016-09-13T10:41:38.500Z,34.38
2016-09-13T10:42:38.527Z,34.42
2016-09-13T10:43:38.561Z,34.47
2016-09-13T10:44:38.597Z,34.6
2016-09-13T10:45:38.627Z,34.55
2016-09-13T10:46:38.655Z,34.67
2016-09-13T10:47:38.697Z,34.7
2016-09-13T10:48:38.787Z,34.78
2016-09-13T10:49:38.755Z,34.78
2016-09-13T10:50:38.788Z,34.74
2016-09-13T10:51:38.834Z,34.89
2016-09-13T10:52:38.854Z,34.9
2016-09-13T10:53:39.203Z,34.97
2016-09-13T10:54:38.920Z,35.07
2016-09-13T10:55:38.950Z,35.1
2016-09-13T10:56:38.989Z,35.17
2016-09-13T10:57:39.020Z,35.22
2016-09-13T10:58:39.051Z,35.23
2016-09-13T10:59:39.087Z,35.26
2016-09-13T11:00:39.121Z,35.27
2016-09-13T11:01:39.777Z,35.33
2016-09-13T11:02:39.180Z,35.37
2016-09-13T11:03:39.217Z,35.45
2016-09-13T11:04:39.248Z,35.41
2016-09-13T11:05:39.282Z,35.56
2016-09-13T11:06:39.314Z,35.55
2016-09-13T11:07:39.352Z,35.63
2016-09-13T11:08:39.382Z,35.68
2016-09-13T11:09:39.414Z,35.74
2016-09-13T11:10:39.445Z,35.79
2016-09-13T11:11:39.480Z,35.85
2016-09-13T11:12:39.514Z,35.93
2016-09-13T11:13:39.560Z,35.95
2016-09-13T11:14:39.896Z,35.88
2016-09-13T11:15:39.612Z,36.02
2016-09-13T11:16:39.649Z,36.01
2016-09-13T11:17:40.002Z,36.04
2016-09-13T11:18:39.713Z,36.08
2016-09-13T11:19:39.748Z,36.2
2016-09-13T11:20:39.783Z,36.16
2016-09-13T11:21:39.816Z,36.25
2016-09-13T11:22:39.845Z,36.36
2016-09-13T11:23:39.882Z,36.25
2016-09-13T11:24:39.923Z,36.3
2016-09-13T11:25:39.950Z,36.37
2016-09-13T11:26:39.985Z,36.45
2016-09-13T11:27:40.332Z,36.4
2016-09-13T11:28:40.050Z,36.45
2016-09-13T11:29:40.082Z,36.52
2016-09-13T11:30:40.125Z,36.52
2016-09-13T11:31:40.154Z,36.57
2016-09-13T11:32:40.499Z,36.52
2016-09-13T11:33:40.224Z,36.62
2016-09-13T11:34:40.255Z,36.65
2016-09-13T11:35:40.302Z,36.72
2016-09-13T11:36:40.328Z,36.73
2016-09-13T11:37:40.358Z,36.84
2016-09-13T11:38:40.395Z,36.88
2016-09-13T11:39:40.543Z,36.89
2016-09-13T11:40:40.457Z,36.81
2016-09-13T11:41:40.822Z,36.92
2016-09-13T11:42:40.525Z,36.91
2016-09-13T11:43:40.561Z,36.92
2016-09-13T11:44:40.594Z,36.99
2016-09-13T11:45:40.629Z,36.98
2016-09-13T11:46:40.670Z,37.03
2016-09-13T11:47:40.778Z,36.99
2016-09-13T11:48:40.745Z,36.99
2016-09-13T11:49:40.780Z,37.06
2016-09-13T11:50:40.803Z,37.08
2016-09-13T11:51:40.838Z,37.13
2016-09-13T11:52:40.871Z,37.17
2016-09-13T11:53:40.907Z,37.2
2016-09-13T11:54:40.940Z,37.23
2016-09-13T11:55:40.974Z,37.25
2016-09-13T11:56:41.014Z,37.32
2016-09-13T11:57:41.044Z,37.35
2016-09-13T11:58:41.079Z,37.35
2016-09-13T11:59:41.113Z,37.39
2016-09-13T12:00:41.153Z,37.44
2016-09-13T12:01:41.192Z,37.47
2016-09-13T12:02:41.216Z,37.58
2016-09-13T12:03:41.251Z,37.6
2016-09-13T12:04:41.293Z,37.64
2016-09-13T12:05:41.318Z,37.53
2016-09-13T12:06:41.357Z,37.56
2016-09-13T12:07:41.390Z,37.53
2016-09-13T12:08:41.421Z,37.56
2016-09-13T12:09:41.772Z,37.59
2016-09-13T12:10:41.493Z,37.67
2016-09-13T12:11:41.528Z,37.59
2016-09-13T12:12:41.566Z,37.56
2016-09-13T12:13:41.598Z,37.58
2016-09-13T12:14:41.630Z,37.67
2016-09-13T12:15:41.671Z,37.68
2016-09-13T12:16:42.014Z,37.68
2016-09-13T12:17:42.051Z,37.74
2016-09-13T12:18:41.889Z,37.74
2016-09-13T12:19:41.810Z,37.77
2016-09-13T12:20:41.935Z,37.78
2016-09-13T12:21:41.879Z,37.83
2016-09-13T12:22:41.910Z,37.82
2016-09-13T12:23:41.949Z,37.9
2016-09-13T12:24:41.981Z,37.9
2016-09-13T12:25:42.019Z,37.93
2016-09-13T12:26:42.059Z,37.92
2016-09-13T12:27:42.088Z,37.92
2016-09-13T12:28:42.121Z,37.92
2016-09-13T12:29:42.156Z,38.04
2016-09-13T12:30:42.194Z,38.04
2016-09-13T12:31:42.226Z,38.01
2016-09-13T12:32:42.265Z,38.11
2016-09-13T12:33:42.297Z,38.04
2016-09-13T12:34:42.451Z,38.02
2016-09-13T12:35:42.370Z,38.06
2016-09-13T12:36:42.406Z,38.14
2016-09-13T12:37:42.452Z,38.12
2016-09-13T12:38:42.475Z,38.08
2016-09-13T12:39:42.512Z,38.11
2016-09-13T12:40:42.544Z,38.17
2016-09-13T12:41:42.582Z,38.15
2016-09-13T12:42:42.683Z,38.14
2016-09-13T12:43:42.696Z,38.14
2016-09-13T12:44:42.687Z,38.2
2016-09-13T12:45:42.722Z,38.19
2016-09-13T12:46:42.757Z,38.2
2016-09-13T12:47:42.866Z,38.17
2016-09-13T12:48:42.973Z,38.21
2016-09-13T12:49:42.866Z,38.21
2016-09-13T12:50:42.919Z,38.17
2016-09-13T12:51:42.935Z,38.17
2016-09-13T12:52:42.972Z,38.21
2016-09-13T12:53:43.005Z,38.21
2016-09-13T12:54:43.050Z,38.19
2016-09-13T12:55:43.085Z,38.26